createdAt,value
2023-03-03T00:01:46.842Z,19.00
2023-03-03T00:04:14.316Z,21.73
2023-03-03T00:06:41.646Z,21.53
2023-03-03T00:09:09.122Z,25.20
2023-03-03T00:11:36.609Z,22.20
2023-03-03T00:14:03.926Z,20.13
2023-03-03T00:16:38.631Z,17.10
2023-03-03T00:19:20.541Z,21.70
2023-03-03T00:21:48.999Z,24.93
2023-03-03T00:24:21.232Z,20.80
2023-03-03T00:26:57.397Z,21.73
2023-03-03T00:29:32.514Z,20.80
2023-03-03T00:32:20.670Z,25.70
2023-03-03T00:34:49.640Z,24.40
2023-03-03T00:37:31.564Z,28.27
2023-03-03T00:40:02.384Z,29.57
2023-03-03T00:42:30.489Z,22.00
2023-03-03T00:45:00.338Z,30.43
2023-03-03T00:47:31.832Z,31.43
2023-03-03T00:50:06.833Z,28.80
2023-03-03T00:52:36.796Z,26.70
2023-03-03T00:55:04.902Z,26.00
2023-03-03T00:57:33.481Z,26.37
2023-03-03T01:00:03.704Z,29.57
2023-03-03T01:02:33.129Z,30.93
2023-03-03T01:05:01.035Z,25.60
2023-03-03T01:07:29.009Z,26.40
2023-03-03T01:09:56.688Z,28.63
2023-03-03T01:12:32.390Z,28.37
2023-03-03T01:15:01.573Z,30.43
2023-03-03T01:17:30.560Z,28.67
2023-03-03T01:19:58.613Z,31.73
2023-03-03T01:22:27.240Z,29.23
2023-03-03T01:24:59.225Z,27.97
2023-03-03T01:27:30.450Z,29.30
2023-03-03T01:29:59.676Z,31.33
2023-03-03T01:32:27.893Z,29.47
2023-03-03T01:34:55.482Z,28.70
2023-03-03T01:37:23.237Z,30.67
2023-03-03T01:39:52.776Z,37.23
2023-03-03T01:42:20.366Z,30.20
2023-03-03T01:44:48.300Z,33.77
2023-03-03T01:47:21.830Z,29.37
2023-03-03T01:49:53.747Z,33.77
2023-03-03T01:52:33.639Z,30.83
2023-03-03T01:55:04.433Z,30.67
2023-03-03T01:57:33.816Z,33.70
2023-03-03T02:00:03.439Z,32.97
2023-03-03T02:02:40.969Z,30.10
2023-03-03T02:05:08.799Z,31.97
2023-03-03T02:07:36.539Z,31.30
2023-03-03T02:10:08.622Z,31.53
2023-03-03T02:12:55.758Z,33.93
2023-03-03T02:15:32.606Z,29.60
2023-03-03T02:18:03.093Z,34.77
2023-03-03T02:20:33.790Z,35.27
2023-03-03T02:23:09.852Z,33.50
2023-03-03T02:25:58.632Z,36.23
2023-03-03T02:28:30.368Z,32.47
2023-03-03T02:31:02.094Z,34.30
2023-03-03T02:33:30.184Z,33.17
2023-03-03T02:35:57.770Z,35.10
2023-03-03T02:38:25.196Z,30.87
2023-03-03T02:41:01.933Z,37.00
2023-03-03T02:43:35.592Z,34.00
2023-03-03T02:46:03.686Z,34.57
2023-03-03T02:48:31.511Z,36.57
2023-03-03T02:50:59.792Z,38.50
2023-03-03T02:53:27.486Z,41.33
2023-03-03T02:55:55.095Z,37.87
2023-03-03T02:58:23.495Z,38.53
2023-03-03T03:00:51.122Z,34.90
2023-03-03T03:03:22.995Z,34.53
2023-03-03T03:05:50.939Z,33.17
2023-03-03T03:08:21.048Z,35.00
2023-03-03T03:10:49.262Z,41.80
2023-03-03T03:13:20.164Z,40.03
2023-03-03T03:15:48.386Z,39.87
2023-03-03T03:18:16.890Z,40.50
2023-03-03T03:20:46.962Z,42.47
2023-03-03T03:23:16.188Z,41.43
2023-03-03T03:25:46.847Z,40.57
2023-03-03T03:28:21.896Z,40.03
2023-03-03T03:30:51.797Z,40.57
2023-03-03T03:33:22.172Z,39.17
2023-03-03T03:35:50.547Z,35.97
2023-03-03T03:38:17.925Z,36.20
2023-03-03T03:40:45.410Z,42.10
2023-03-03T03:43:12.648Z,44.07
2023-03-03T03:45:42.424Z,41.00
2023-03-03T03:48:09.956Z,45.63
2023-03-03T03:50:37.624Z,44.83
2023-03-03T03:53:06.107Z,47.83
2023-03-03T03:55:34.273Z,42.00
2023-03-03T03:58:01.570Z,42.10
2023-03-03T04:00:28.839Z,47.33
2023-03-03T04:03:00.676Z,45.07
2023-03-03T04:05:28.549Z,42.60
2023-03-03T04:07:56.455Z,48.87
2023-03-03T04:10:23.706Z,42.40
2023-03-03T04:12:50.920Z,40.60
2023-03-03T04:15:18.455Z,52.33
2023-03-03T04:17:45.741Z,46.57
2023-03-03T04:20:15.254Z,46.83
2023-03-03T04:22:44.617Z,44.50
2023-03-03T04:25:15.664Z,50.93
2023-03-03T04:27:44.372Z,50.70
2023-03-03T04:30:13.977Z,43.90
2023-03-03T04:32:41.298Z,47.77
2023-03-03T04:35:11.764Z,50.80
2023-03-03T04:37:41.497Z,46.47
2023-03-03T04:40:11.139Z,49.63
2023-03-03T04:42:39.677Z,51.00
2023-03-03T04:45:08.979Z,43.33
2023-03-03T04:47:36.778Z,41.40
2023-03-03T04:50:04.894Z,42.00
2023-03-03T04:52:33.531Z,44.67
2023-03-03T04:55:00.915Z,51.30
2023-03-03T04:57:28.509Z,52.33
2023-03-03T04:59:56.294Z,53.43
2023-03-03T05:02:23.468Z,51.97
2023-03-03T05:04:51.045Z,45.20
2023-03-03T05:07:22.158Z,43.47
2023-03-03T05:09:52.877Z,48.67
2023-03-03T05:12:20.044Z,50.87
2023-03-03T05:14:47.638Z,46.87
2023-03-03T05:17:15.011Z,49.17
2023-03-03T05:19:42.184Z,47.60
2023-03-03T05:22:10.236Z,52.90
2023-03-03T05:24:37.532Z,47.53
2023-03-03T05:27:04.709Z,48.47
2023-03-03T05:29:33.386Z,53.73
2023-03-03T05:32:01.529Z,47.67
2023-03-03T05:34:28.789Z,55.63
2023-03-03T05:36:55.950Z,49.57
2023-03-03T05:39:23.372Z,51.80
2023-03-03T05:41:51.061Z,57.70
2023-03-03T05:44:20.524Z,50.50
2023-03-03T05:46:47.922Z,59.27
2023-03-03T05:49:15.165Z,50.63
2023-03-03T05:51:44.491Z,49.83
2023-03-03T05:54:14.009Z,58.27
2023-03-03T05:56:41.222Z,54.63
2023-03-03T05:59:08.629Z,60.93
2023-03-03T06:01:35.826Z,52.60
2023-03-03T06:04:03.064Z,53.33
2023-03-03T06:06:30.372Z,55.00
2023-03-03T06:08:57.482Z,52.77
2023-03-03T06:11:24.722Z,55.47
2023-03-03T06:13:52.012Z,58.40
2023-03-03T06:16:19.331Z,58.63
2023-03-03T06:18:47.053Z,58.00
2023-03-03T06:21:14.215Z,57.87
2023-03-03T06:23:41.962Z,56.00
2023-03-03T06:26:09.410Z,49.60
2023-03-03T06:28:36.677Z,58.57
2023-03-03T06:31:04.204Z,64.93
2023-03-03T06:33:31.380Z,52.50
2023-03-03T06:35:58.756Z,56.47
2023-03-03T06:38:26.012Z,57.40
2023-03-03T06:40:53.425Z,54.40
2023-03-03T06:43:20.617Z,62.67
2023-03-03T06:45:47.852Z,56.10
2023-03-03T06:48:15.028Z,58.53
2023-03-03T06:50:42.439Z,55.80
2023-03-03T06:53:12.712Z,50.30
2023-03-03T06:55:39.940Z,55.43
2023-03-03T06:58:14.882Z,53.60
2023-03-03T07:00:46.177Z,54.40
2023-03-03T07:03:17.373Z,57.47
2023-03-03T07:05:45.070Z,57.77
2023-03-03T07:08:20.250Z,65.20
2023-03-03T07:10:47.818Z,60.13
2023-03-03T07:13:19.486Z,51.17
2023-03-03T07:15:47.523Z,52.43
2023-03-03T07:18:45.525Z,54.37
2023-03-03T07:21:23.464Z,54.57
2023-03-03T07:23:51.760Z,54.23
2023-03-03T07:26:24.831Z,62.00
2023-03-03T07:28:57.777Z,55.93
2023-03-03T07:31:28.266Z,55.10
2023-03-03T07:33:55.990Z,55.47
2023-03-03T07:36:31.374Z,53.73
2023-03-03T07:39:00.279Z,48.67
2023-03-03T07:41:28.795Z,51.67
2023-03-03T07:43:58.269Z,50.20
2023-03-03T07:46:37.640Z,56.17
2023-03-03T07:49:13.519Z,55.43
2023-03-03T07:51:44.076Z,50.30
2023-03-03T07:54:29.914Z,45.87
2023-03-03T07:56:59.544Z,53.87
2023-03-03T07:59:26.806Z,55.70
2023-03-03T08:02:00.462Z,55.27
2023-03-03T08:04:42.821Z,54.43
2023-03-03T08:07:18.023Z,49.30
2023-03-03T08:09:59.392Z,48.50
2023-03-03T08:12:29.680Z,59.50
2023-03-03T08:14:57.417Z,50.03
2023-03-03T08:17:26.289Z,51.77
2023-03-03T08:19:54.488Z,54.60
2023-03-03T08:22:30.252Z,50.43
2023-03-03T08:24:57.438Z,45.10
2023-03-03T08:27:24.618Z,48.80
2023-03-03T08:29:51.728Z,47.33
2023-03-03T08:32:19.988Z,49.23
2023-03-03T08:34:47.319Z,50.77
2023-03-03T08:37:14.491Z,55.67
2023-03-03T08:39:41.721Z,40.40
2023-03-03T08:42:08.877Z,42.90
2023-03-03T08:44:36.056Z,49.40
2023-03-03T08:47:04.524Z,50.47
2023-03-03T08:49:31.732Z,50.50
2023-03-03T08:52:00.647Z,50.77
2023-03-03T08:54:27.819Z,50.87
2023-03-03T08:56:54.995Z,45.60
2023-03-03T08:59:22.319Z,43.93
2023-03-03T09:01:49.910Z,49.93
2023-03-03T09:04:18.146Z,41.67
2023-03-03T09:06:45.365Z,46.77
2023-03-03T09:09:13.872Z,45.80
2023-03-03T09:11:43.798Z,41.83
2023-03-03T09:14:12.303Z,39.90
2023-03-03T09:16:41.361Z,50.40
2023-03-03T09:19:21.912Z,44.40
2023-03-03T09:21:49.180Z,45.10
2023-03-03T09:24:24.314Z,46.57
2023-03-03T09:26:53.018Z,44.03
2023-03-03T09:29:29.006Z,40.93
2023-03-03T09:31:58.624Z,41.73
2023-03-03T09:34:42.489Z,42.77
2023-03-03T09:37:19.713Z,38.30
2023-03-03T09:39:49.198Z,39.97
2023-03-03T09:42:22.580Z,44.63
2023-03-03T09:44:59.470Z,43.80
2023-03-03T09:47:40.150Z,35.63
2023-03-03T09:50:21.012Z,35.63
2023-03-03T09:53:08.541Z,37.40
2023-03-03T09:55:40.734Z,35.00
2023-03-03T09:58:13.822Z,43.70
2023-03-03T10:00:56.107Z,35.10
2023-03-03T10:03:36.501Z,44.30
2023-03-03T10:06:03.647Z,40.90
2023-03-03T10:08:49.787Z,33.50
2023-03-03T10:11:16.941Z,33.90
2023-03-03T10:13:53.190Z,28.40
2023-03-03T10:16:39.195Z,32.23
2023-03-03T10:19:34.126Z,30.77
2023-03-03T10:22:31.362Z,30.57
2023-03-03T10:25:11.124Z,29.67
2023-03-03T10:27:46.831Z,27.60
2023-03-03T10:30:33.142Z,32.57
2023-03-03T10:33:12.892Z,28.50
2023-03-03T10:36:06.599Z,29.13
2023-03-03T10:38:55.478Z,28.73
2023-03-03T10:41:33.945Z,25.30
2023-03-03T10:44:09.575Z,28.17
2023-03-03T10:46:55.666Z,24.60
2023-03-03T10:49:39.307Z,32.20
2023-03-03T10:52:16.963Z,24.87
2023-03-03T10:54:47.111Z,26.90
2023-03-03T10:57:23.606Z,26.60
2023-03-03T11:00:00.886Z,23.27
2023-03-03T11:02:36.910Z,23.97
2023-03-03T11:05:10.297Z,24.73
2023-03-03T11:07:46.981Z,25.40
2023-03-03T11:10:27.961Z,24.47
2023-03-03T11:13:03.324Z,21.00
2023-03-03T11:15:30.498Z,26.10
2023-03-03T11:18:06.677Z,23.27
2023-03-03T11:20:39.321Z,25.57
2023-03-03T11:23:20.350Z,25.30
2023-03-03T11:25:55.637Z,25.70
2023-03-03T11:28:29.900Z,23.73
2023-03-03T11:31:11.747Z,20.47
2023-03-03T11:33:59.914Z,24.50
2023-03-03T11:36:34.983Z,23.50
2023-03-03T11:39:08.265Z,25.60
2023-03-03T11:41:43.550Z,23.83
2023-03-03T11:44:14.682Z,22.83
2023-03-03T11:46:50.585Z,25.00
2023-03-03T11:49:23.868Z,29.83
2023-03-03T11:51:59.002Z,26.50
2023-03-03T11:54:43.357Z,25.27
2023-03-03T11:57:16.498Z,25.07
2023-03-03T11:59:48.684Z,19.33
2023-03-03T12:02:32.083Z,22.13
2023-03-03T12:05:18.114Z,26.87
2023-03-03T12:07:51.489Z,25.27
2023-03-03T12:10:31.103Z,21.00
2023-03-03T12:13:16.112Z,23.50
2023-03-03T12:15:50.894Z,18.23
2023-03-03T12:18:23.824Z,24.40
2023-03-03T12:21:00.127Z,20.60
2023-03-03T12:23:46.712Z,21.30
2023-03-03T12:26:19.979Z,20.07
2023-03-03T12:28:52.989Z,21.63
2023-03-03T12:31:24.722Z,21.93
2023-03-03T12:33:56.753Z,23.90
2023-03-03T12:36:35.578Z,24.53
2023-03-03T12:39:09.234Z,19.70
2023-03-03T12:41:41.980Z,20.30
2023-03-03T12:44:37.140Z,22.30
2023-03-03T12:47:24.859Z,19.70
2023-03-03T12:50:10.292Z,15.03
2023-03-03T12:53:09.985Z,20.57
2023-03-03T12:55:46.079Z,19.73
2023-03-03T12:58:32.431Z,19.10
2023-03-03T13:01:02.735Z,22.10
2023-03-03T13:03:55.794Z,19.27
2023-03-03T13:06:43.935Z,36.87
2023-03-03T13:09:20.526Z,46.33
2023-03-03T13:11:48.207Z,46.60
2023-03-03T13:14:24.874Z,48.17
2023-03-03T13:17:02.473Z,45.80
2023-03-03T13:19:41.530Z,36.47
2023-03-03T13:22:11.924Z,43.00
2023-03-03T13:24:41.681Z,39.40
2023-03-03T13:27:14.477Z,39.97
2023-03-03T13:29:45.191Z,31.83
2023-03-03T13:32:18.259Z,27.53
2023-03-03T13:34:58.191Z,23.60
2023-03-03T13:37:30.371Z,27.43
2023-03-03T13:40:03.549Z,24.00
2023-03-03T13:42:34.681Z,21.60
2023-03-03T13:45:07.614Z,20.13
2023-03-03T13:47:37.906Z,23.70
2023-03-03T13:50:14.384Z,20.77
2023-03-03T13:52:54.214Z,19.93
2023-03-03T13:55:24.631Z,18.70
2023-03-03T13:58:05.857Z,19.10
2023-03-03T14:00:53.966Z,17.63
2023-03-03T14:03:21.605Z,20.10
2023-03-03T14:05:50.150Z,18.07
2023-03-03T14:08:37.224Z,19.33
2023-03-03T14:11:10.733Z,19.10
2023-03-03T14:13:47.148Z,16.30
2023-03-03T14:16:14.980Z,16.97
2023-03-03T14:18:54.807Z,13.70
2023-03-03T14:21:27.924Z,16.20
2023-03-03T14:24:10.650Z,12.67
2023-03-03T14:26:49.580Z,14.70
2023-03-03T14:29:27.470Z,16.13
2023-03-03T14:32:02.183Z,14.67
2023-03-03T14:34:41.183Z,12.20
2023-03-03T14:37:31.812Z,12.67
2023-03-03T14:40:02.305Z,15.43
2023-03-03T14:42:34.741Z,13.67
2023-03-03T14:45:04.652Z,12.90
2023-03-03T14:47:32.124Z,13.57
2023-03-03T14:50:00.446Z,15.93
2023-03-03T14:52:29.332Z,11.50
2023-03-03T14:55:01.784Z,17.27
2023-03-03T14:57:51.315Z,13.13
2023-03-03T15:00:20.006Z,12.77
2023-03-03T15:02:47.647Z,17.37
2023-03-03T15:05:31.620Z,16.40
2023-03-03T15:08:08.951Z,13.83
2023-03-03T15:10:41.580Z,15.73
2023-03-03T15:13:21.387Z,14.33
2023-03-03T15:16:01.017Z,15.33
2023-03-03T15:18:29.407Z,13.47
2023-03-03T15:21:05.595Z,16.07
2023-03-03T15:24:05.687Z,15.10
2023-03-03T15:26:39.020Z,12.80
2023-03-03T15:29:07.423Z,13.37
2023-03-03T15:31:35.254Z,12.30
2023-03-03T15:34:05.428Z,10.53
2023-03-03T15:36:40.601Z,9.57
2023-03-03T15:39:13.897Z,11.67
2023-03-03T15:42:00.229Z,10.80
2023-03-03T15:44:34.549Z,13.57
2023-03-03T15:47:18.078Z,11.00
2023-03-03T15:49:56.021Z,14.20
2023-03-03T15:52:32.037Z,9.97
2023-03-03T15:54:59.336Z,13.10
2023-03-03T15:57:40.589Z,10.80
2023-03-03T16:00:14.026Z,10.20
2023-03-03T16:02:58.717Z,15.90
2023-03-03T16:05:34.554Z,9.00
2023-03-03T16:08:05.192Z,12.43
2023-03-03T16:10:39.973Z,13.63
2023-03-03T16:13:13.248Z,10.17
2023-03-03T16:15:46.680Z,9.73
2023-03-03T16:18:24.935Z,9.40
2023-03-03T16:21:03.834Z,11.40
2023-03-03T16:23:48.267Z,10.47
2023-03-03T16:26:31.533Z,10.20
2023-03-03T16:29:09.194Z,9.60
2023-03-03T16:31:50.006Z,12.10
2023-03-03T16:34:31.801Z,9.60
2023-03-03T16:37:08.464Z,8.83
2023-03-03T16:39:52.111Z,12.60
2023-03-03T16:42:29.557Z,8.00
2023-03-03T16:45:15.653Z,11.83
2023-03-03T16:47:52.344Z,10.27
2023-03-03T16:50:26.312Z,8.77
2023-03-03T16:53:12.332Z,10.30
2023-03-03T16:55:46.044Z,9.80
2023-03-03T16:58:26.091Z,7.70
2023-03-03T17:00:58.131Z,12.07
2023-03-03T17:03:29.318Z,11.93
2023-03-03T17:06:02.665Z,9.93
2023-03-03T17:08:38.596Z,12.03
2023-03-03T17:11:18.048Z,13.37
2023-03-03T17:14:10.060Z,10.23
2023-03-03T17:16:52.288Z,10.27
2023-03-03T17:19:26.299Z,9.40
2023-03-03T17:22:12.291Z,10.37
2023-03-03T17:25:00.716Z,10.10
2023-03-03T17:27:44.287Z,10.00
2023-03-03T17:30:22.417Z,10.30
2023-03-03T17:33:12.450Z,10.73
2023-03-03T17:35:48.588Z,9.70
2023-03-03T17:38:24.919Z,13.23
2023-03-03T17:41:04.354Z,9.87
2023-03-03T17:43:35.652Z,27.53
2023-03-03T17:46:10.283Z,12.50
2023-03-03T17:48:53.184Z,9.93
2023-03-03T17:51:37.080Z,10.20
2023-03-03T17:54:24.873Z,8.47
2023-03-03T17:57:11.354Z,11.47
2023-03-03T17:59:48.536Z,12.50
2023-03-03T18:02:35.151Z,11.60
2023-03-03T18:05:19.469Z,15.13
2023-03-03T18:08:07.584Z,12.70
2023-03-03T18:10:57.800Z,17.13
2023-03-03T18:13:44.473Z,10.00
2023-03-03T18:16:12.640Z,10.60
2023-03-03T18:18:46.004Z,12.63
2023-03-03T18:21:17.657Z,11.77
2023-03-03T18:23:45.963Z,14.13
2023-03-03T18:26:31.459Z,12.80
2023-03-03T18:29:11.867Z,11.80
2023-03-03T18:32:05.526Z,12.50
2023-03-03T18:34:38.811Z,12.17
2023-03-03T18:37:24.844Z,13.53
2023-03-03T18:40:04.441Z,13.80
2023-03-03T18:42:37.390Z,12.80
2023-03-03T18:45:20.296Z,11.53
2023-03-03T18:48:07.780Z,16.40
2023-03-03T18:50:36.670Z,13.93
2023-03-03T18:53:14.896Z,11.17
2023-03-03T18:55:43.335Z,17.43
2023-03-03T18:58:16.662Z,15.40
2023-03-03T19:00:46.882Z,12.90
2023-03-03T19:03:32.131Z,13.73
2023-03-03T19:06:00.223Z,15.37
2023-03-03T19:08:51.178Z,14.90
2023-03-03T19:11:38.304Z,13.53
2023-03-03T19:14:14.746Z,19.93
2023-03-03T19:16:42.282Z,15.90
2023-03-03T19:19:20.470Z,17.10
2023-03-03T19:22:14.035Z,14.87
2023-03-03T19:24:41.168Z,16.63
2023-03-03T19:27:17.616Z,18.80
2023-03-03T19:29:44.854Z,14.67
2023-03-03T19:32:21.182Z,16.70
2023-03-03T19:35:07.383Z,14.70
2023-03-03T19:37:37.701Z,14.70
2023-03-03T19:40:17.802Z,12.80
2023-03-03T19:42:56.504Z,15.40
2023-03-03T19:45:40.732Z,13.40
2023-03-03T19:48:23.351Z,19.87
2023-03-03T19:51:10.428Z,11.17
2023-03-03T19:53:37.623Z,17.80
2023-03-03T19:56:10.931Z,14.23
2023-03-03T19:58:47.945Z,14.33
2023-03-03T20:01:15.172Z,12.33
2023-03-03T20:03:50.041Z,13.30
2023-03-03T20:06:27.122Z,16.50
2023-03-03T20:08:57.588Z,11.87
2023-03-03T20:11:47.762Z,15.30
2023-03-03T20:14:17.958Z,16.20
2023-03-03T20:16:48.171Z,15.97
2023-03-03T20:19:25.875Z,13.03
2023-03-03T20:22:08.834Z,13.30
2023-03-03T20:24:42.116Z,15.73
2023-03-03T20:27:28.251Z,14.70
2023-03-03T20:30:06.033Z,11.60
2023-03-03T20:32:44.775Z,13.37
2023-03-03T20:35:23.316Z,13.77
2023-03-03T20:38:02.841Z,11.80
2023-03-03T20:40:30.846Z,15.80
2023-03-03T20:43:27.471Z,15.87
2023-03-03T20:46:14.643Z,13.20
2023-03-03T20:48:53.805Z,15.37
2023-03-03T20:51:30.188Z,15.03
2023-03-03T20:54:05.108Z,15.40
2023-03-03T20:56:56.212Z,13.27
2023-03-03T20:59:37.696Z,13.77
2023-03-03T21:02:07.660Z,16.27
2023-03-03T21:04:36.137Z,13.87
2023-03-03T21:07:04.336Z,21.83
2023-03-03T21:09:39.261Z,16.20
2023-03-03T21:12:26.718Z,15.13
2023-03-03T21:15:04.767Z,12.30
2023-03-03T21:17:32.207Z,16.33
2023-03-03T21:20:18.735Z,17.43
2023-03-03T21:22:45.891Z,15.40
2023-03-03T21:25:34.132Z,16.77
2023-03-03T21:28:14.760Z,19.97
2023-03-03T21:31:03.915Z,15.27
2023-03-03T21:33:43.509Z,16.10
2023-03-03T21:36:13.235Z,16.53
2023-03-03T21:38:40.658Z,14.47
2023-03-03T21:41:08.931Z,16.13
2023-03-03T21:43:40.728Z,20.27
2023-03-03T21:46:08.058Z,14.83
2023-03-03T21:48:35.330Z,16.60
2023-03-03T21:51:02.753Z,16.83
2023-03-03T21:53:30.514Z,15.97
2023-03-03T21:55:57.653Z,13.30
2023-03-03T21:58:24.802Z,16.33
2023-03-03T22:00:51.952Z,13.27
2023-03-03T22:03:20.703Z,15.00
2023-03-03T22:05:51.262Z,14.53
2023-03-03T22:08:22.377Z,13.97
2023-03-03T22:10:56.037Z,16.17
2023-03-03T22:13:24.341Z,15.07
2023-03-03T22:15:51.649Z,14.23
2023-03-03T22:18:19.264Z,15.70
2023-03-03T22:20:47.135Z,18.67
2023-03-03T22:23:14.724Z,16.60
2023-03-03T22:25:42.351Z,17.80
2023-03-03T22:28:09.814Z,17.70
2023-03-03T22:30:37.459Z,19.47
2023-03-03T22:33:04.601Z,15.83
2023-03-03T22:35:31.828Z,19.27
2023-03-03T22:37:59.182Z,19.27
2023-03-03T22:40:26.796Z,24.87
2023-03-03T22:42:53.968Z,21.20
2023-03-03T22:45:21.124Z,16.80
2023-03-03T22:47:48.278Z,19.30
2023-03-03T22:50:16.726Z,22.63
2023-03-03T22:52:43.941Z,21.80
2023-03-03T22:55:11.197Z,18.80
2023-03-03T22:57:38.382Z,19.47
2023-03-03T23:00:07.458Z,15.97
2023-03-03T23:02:34.698Z,17.93
2023-03-03T23:05:07.710Z,18.80
2023-03-03T23:07:36.045Z,18.67
2023-03-03T23:10:04.112Z,18.17
2023-03-03T23:12:31.514Z,21.33
2023-03-03T23:14:58.765Z,20.93
2023-03-03T23:17:25.930Z,18.30
2023-03-03T23:19:53.165Z,20.07
2023-03-03T23:22:20.766Z,21.50
2023-03-03T23:24:47.983Z,19.70
2023-03-03T23:27:15.107Z,17.83
2023-03-03T23:29:42.259Z,22.40
2023-03-03T23:32:09.492Z,20.77
2023-03-03T23:34:36.657Z,17.50
2023-03-03T23:37:03.846Z,18.33
2023-03-03T23:39:31.057Z,22.47
2023-03-03T23:41:58.188Z,20.93
2023-03-03T23:44:25.442Z,19.70
2023-03-03T23:46:52.657Z,19.10
2023-03-03T23:49:19.927Z,23.80
2023-03-03T23:51:47.171Z,24.80
2023-03-03T23:54:14.316Z,17.83
2023-03-03T23:56:41.683Z,24.77
2023-03-03T23:59:08.872Z,21.93
